createdAt,value
2019-04-10T00:01:32.170Z,51.98
2019-04-10T00:04:00.782Z,51.86
2019-04-10T00:06:29.849Z,51.63
2019-04-10T00:08:58.826Z,52.06
2019-04-10T00:11:27.034Z,52.08
2019-04-10T00:13:55.380Z,51.58
2019-04-10T00:16:24.482Z,52.01
2019-04-10T00:18:52.534Z,51.80
2019-04-10T00:21:20.984Z,52.07
2019-04-10T00:23:49.278Z,51.83
2019-04-10T00:26:17.445Z,51.65
2019-04-10T00:28:45.630Z,51.75
2019-04-10T00:31:13.839Z,51.69
2019-04-10T00:33:42.954Z,51.62
2019-04-10T00:36:12.150Z,51.81
2019-04-10T00:38:40.244Z,51.76
2019-04-10T00:41:08.305Z,51.67
2019-04-10T00:43:37.146Z,51.32
2019-04-10T00:46:06.191Z,51.87
2019-04-10T00:48:34.513Z,51.55
2019-04-10T00:51:03.382Z,51.79
2019-04-10T00:53:31.514Z,51.70
2019-04-10T00:55:59.930Z,51.68
2019-04-10T00:58:28.022Z,51.83
2019-04-10T01:00:57.093Z,52.12
2019-04-10T01:03:44.021Z,51.96
2019-04-10T01:06:12.160Z,51.83
2019-04-10T01:08:40.529Z,51.63
2019-04-10T01:11:08.663Z,51.83
2019-04-10T01:13:36.950Z,51.35
2019-04-10T01:16:05.072Z,51.61
2019-04-10T01:18:33.150Z,51.84
2019-04-10T01:21:02.004Z,51.58
2019-04-10T01:23:30.932Z,52.03
2019-04-10T01:25:59.015Z,51.63
2019-04-10T01:28:27.053Z,51.80
2019-04-10T01:30:55.097Z,52.03
2019-04-10T01:33:23.132Z,51.49
2019-04-10T01:35:51.264Z,51.41
2019-04-10T01:38:19.698Z,51.69
2019-04-10T01:40:47.720Z,51.85
2019-04-10T01:43:18.334Z,51.92
2019-04-10T01:45:45.953Z,51.87
2019-04-10T01:48:14.050Z,51.54
2019-04-10T01:50:42.335Z,51.45
2019-04-10T01:53:11.282Z,51.48
2019-04-10T01:55:39.485Z,51.63
2019-04-10T01:58:12.667Z,51.47
2019-04-10T02:00:44.063Z,51.60
2019-04-10T02:03:12.154Z,51.66
2019-04-10T02:05:40.822Z,51.16
2019-04-10T02:08:13.048Z,51.34
2019-04-10T02:10:40.481Z,51.58
2019-04-10T02:13:09.423Z,51.69
2019-04-10T02:15:38.482Z,51.25
2019-04-10T02:18:06.787Z,51.44
2019-04-10T02:20:34.928Z,51.64
2019-04-10T02:23:03.796Z,51.29
2019-04-10T02:25:32.691Z,51.21
2019-04-10T02:28:00.795Z,51.70
2019-04-10T02:30:30.278Z,51.32
2019-04-10T02:32:59.750Z,51.42
2019-04-10T02:35:29.634Z,51.27
2019-04-10T02:38:00.562Z,50.79
2019-04-10T02:40:28.850Z,51.03
2019-04-10T02:42:58.863Z,51.21
2019-04-10T02:45:26.825Z,51.02
2019-04-10T02:47:55.136Z,51.02
2019-04-10T02:50:25.116Z,51.32
2019-04-10T02:52:54.906Z,51.10
2019-04-10T02:55:23.266Z,51.29
2019-04-10T02:57:54.157Z,50.57
2019-04-10T03:00:24.334Z,51.03
2019-04-10T03:02:54.845Z,50.90
2019-04-10T03:05:23.717Z,50.92
2019-04-10T03:07:52.592Z,50.79
2019-04-10T03:10:29.812Z,50.71
2019-04-10T03:12:52.044Z,50.93
2019-04-10T03:15:20.793Z,50.91
2019-04-10T03:17:50.376Z,50.90
2019-04-10T03:20:18.533Z,50.71
2019-04-10T03:22:47.188Z,50.63
2019-04-10T03:25:15.378Z,50.76
2019-04-10T03:27:43.424Z,50.82
2019-04-10T03:30:13.304Z,50.59
2019-04-10T03:33:09.394Z,50.83
2019-04-10T03:35:43.146Z,50.37
2019-04-10T03:38:11.949Z,50.62
2019-04-10T03:40:40.337Z,50.84
2019-04-10T03:43:08.411Z,50.34
2019-04-10T03:45:36.962Z,50.35
2019-04-10T03:48:06.297Z,50.61
2019-04-10T03:50:34.877Z,50.64
2019-04-10T03:53:03.133Z,50.49
2019-04-10T03:55:31.148Z,50.35
2019-04-10T03:58:00.571Z,50.25
2019-04-10T04:00:29.768Z,50.36
2019-04-10T04:02:58.237Z,50.52
2019-04-10T04:05:26.697Z,50.37
2019-04-10T04:07:55.039Z,50.38
2019-04-10T04:10:26.741Z,49.97
2019-04-10T04:12:55.135Z,50.14
2019-04-10T04:15:24.009Z,50.27
2019-04-10T04:17:52.667Z,49.95
2019-04-10T04:20:21.145Z,50.13
2019-04-10T04:22:49.531Z,50.15
2019-04-10T04:25:17.581Z,49.60
2019-04-10T04:27:46.337Z,49.12
2019-04-10T04:30:14.730Z,49.55
2019-04-10T04:32:42.731Z,49.81
2019-04-10T04:35:11.226Z,49.08
2019-04-10T04:37:39.397Z,49.57
2019-04-10T04:40:07.622Z,49.07
2019-04-10T04:42:35.624Z,49.26
2019-04-10T04:45:03.684Z,49.63
2019-04-10T04:47:31.732Z,49.15
2019-04-10T04:49:59.766Z,49.77
2019-04-10T04:52:27.942Z,49.55
2019-04-10T04:54:56.026Z,49.22
2019-04-10T04:57:24.520Z,49.31
2019-04-10T04:59:52.743Z,49.39
2019-04-10T05:02:21.844Z,49.68
2019-04-10T05:04:50.026Z,49.38
2019-04-10T05:07:18.057Z,49.15
2019-04-10T05:09:46.467Z,49.45
2019-04-10T05:12:16.392Z,49.37
2019-04-10T05:14:44.308Z,48.95
2019-04-10T05:17:15.014Z,49.45
2019-04-10T05:19:42.604Z,48.87
2019-04-10T05:22:10.773Z,48.94
2019-04-10T05:24:39.056Z,48.45
2019-04-10T05:27:07.800Z,48.71
2019-04-10T05:29:36.679Z,48.54
2019-04-10T05:32:05.134Z,48.65
2019-04-10T05:34:33.868Z,48.43
2019-04-10T05:37:03.059Z,47.88
2019-04-10T05:39:40.539Z,47.89
2019-04-10T05:42:02.371Z,47.96
2019-04-10T05:44:31.845Z,48.57
2019-04-10T05:47:01.099Z,47.91
2019-04-10T05:49:29.263Z,48.16
2019-04-10T05:51:57.686Z,48.28
2019-04-10T05:54:26.856Z,48.21
2019-04-10T05:56:55.028Z,48.26
2019-04-10T05:59:23.959Z,47.40
2019-04-10T06:01:52.718Z,46.87
2019-04-10T06:04:21.342Z,46.78
2019-04-10T06:06:49.614Z,46.49
2019-04-10T06:09:17.700Z,46.36
2019-04-10T06:11:47.367Z,46.20
2019-04-10T06:14:15.817Z,46.35
2019-04-10T06:16:44.712Z,46.38
2019-04-10T06:19:12.988Z,46.08
2019-04-10T06:21:41.045Z,45.72
2019-04-10T06:24:09.069Z,46.90
2019-04-10T06:26:37.564Z,47.10
2019-04-10T06:29:06.505Z,47.07
2019-04-10T06:31:34.723Z,47.39
2019-04-10T06:34:02.789Z,47.30
2019-04-10T06:36:30.848Z,47.84
2019-04-10T06:39:02.701Z,48.25
2019-04-10T06:41:30.890Z,48.00
2019-04-10T06:43:58.937Z,48.30
2019-04-10T06:46:26.984Z,47.47
2019-04-10T06:48:55.031Z,47.75
2019-04-10T06:51:23.193Z,47.60
2019-04-10T06:54:01.742Z,47.83
2019-04-10T06:56:21.321Z,47.26
2019-04-10T06:58:49.899Z,46.93
2019-04-10T07:01:20.950Z,47.20
2019-04-10T07:03:58.684Z,46.68
2019-04-10T07:06:21.652Z,46.75
2019-04-10T07:08:50.855Z,46.65
2019-04-10T07:11:19.544Z,46.69
2019-04-10T07:13:46.979Z,46.77
2019-04-10T07:16:15.973Z,46.56
2019-04-10T07:18:47.802Z,46.23
2019-04-10T07:21:14.652Z,46.39
2019-04-10T07:23:42.891Z,46.61
2019-04-10T07:26:12.268Z,46.93
2019-04-10T07:28:43.944Z,46.79
2019-04-10T07:31:11.630Z,47.36
2019-04-10T07:33:40.590Z,49.24
2019-04-10T07:36:11.207Z,49.55
2019-04-10T07:38:39.293Z,48.86
2019-04-10T07:41:16.654Z,49.36
2019-04-10T07:43:40.621Z,52.20
2019-04-10T07:46:08.707Z,54.94
2019-04-10T07:48:37.831Z,56.92
2019-04-10T07:51:06.961Z,56.79
2019-04-10T07:53:35.286Z,53.03
2019-04-10T07:56:08.996Z,52.85
2019-04-10T07:58:33.396Z,52.94
2019-04-10T08:01:01.461Z,54.27
2019-04-10T08:03:29.551Z,53.82
2019-04-10T08:05:58.215Z,53.46
2019-04-10T08:08:26.458Z,54.12
2019-04-10T08:10:55.104Z,52.60
2019-04-10T08:13:23.174Z,53.77
2019-04-10T08:15:52.232Z,55.92
2019-04-10T08:18:21.129Z,55.89
2019-04-10T08:20:49.216Z,54.99
2019-04-10T08:23:17.519Z,54.70
2019-04-10T08:25:45.756Z,53.70
2019-04-10T08:28:13.847Z,54.11
2019-04-10T08:30:42.014Z,55.64
2019-04-10T08:33:10.057Z,55.89
2019-04-10T08:35:38.104Z,55.47
2019-04-10T08:38:06.216Z,56.51
2019-04-10T08:40:36.198Z,54.67
2019-04-10T08:43:04.316Z,57.72
2019-04-10T08:45:41.415Z,55.47
2019-04-10T08:48:02.105Z,54.79
2019-04-10T08:50:30.267Z,53.28
2019-04-10T08:52:58.355Z,55.58
2019-04-10T08:55:26.369Z,54.87
2019-04-10T08:57:54.505Z,54.72
2019-04-10T09:00:22.693Z,54.57
2019-04-10T09:02:50.766Z,55.82
2019-04-10T09:05:19.612Z,55.88
2019-04-10T09:07:48.516Z,55.61
2019-04-10T09:10:16.629Z,54.38
2019-04-10T09:12:45.108Z,55.63
2019-04-10T09:15:13.974Z,54.21
2019-04-10T09:17:42.072Z,54.14
2019-04-10T09:20:10.883Z,54.97
2019-04-10T09:22:57.934Z,55.24
2019-04-10T09:25:09.130Z,55.66
2019-04-10T09:27:37.920Z,57.27
2019-04-10T09:30:06.686Z,58.52
2019-04-10T09:32:34.840Z,58.23
2019-04-10T09:35:02.890Z,58.88
2019-04-10T09:37:31.202Z,58.21
2019-04-10T09:40:00.380Z,58.85
2019-04-10T09:42:28.569Z,58.97
2019-04-10T09:44:57.018Z,58.52
2019-04-10T09:47:25.110Z,57.95
2019-04-10T09:49:53.602Z,58.28
2019-04-10T09:52:21.907Z,59.39
2019-04-10T09:54:50.903Z,59.01
2019-04-10T09:57:20.083Z,58.65
2019-04-10T09:59:48.959Z,58.00
2019-04-10T10:02:17.656Z,59.30
2019-04-10T10:04:45.983Z,58.82
2019-04-10T10:07:14.434Z,59.73
2019-04-10T10:09:43.154Z,58.98
2019-04-10T10:12:11.666Z,59.91
2019-04-10T10:14:40.149Z,59.47
2019-04-10T10:17:26.979Z,57.70
2019-04-10T10:19:55.433Z,57.15
2019-04-10T10:22:23.610Z,58.08
2019-04-10T10:24:51.662Z,58.48
2019-04-10T10:27:19.991Z,59.49
2019-04-10T10:29:48.341Z,58.62
2019-04-10T10:32:17.106Z,58.54
2019-04-10T10:34:45.184Z,59.76
2019-04-10T10:37:13.228Z,59.39
2019-04-10T10:39:41.262Z,61.79
2019-04-10T10:42:09.625Z,59.26
2019-04-10T10:44:38.334Z,61.25
2019-04-10T10:47:06.531Z,60.77
2019-04-10T10:49:34.831Z,61.17
2019-04-10T10:52:03.516Z,60.23
2019-04-10T10:54:32.662Z,58.56
2019-04-10T10:57:00.756Z,58.98
2019-04-10T10:59:29.389Z,59.18
2019-04-10T11:01:57.582Z,59.69
2019-04-10T11:04:25.680Z,59.27
2019-04-10T11:06:59.553Z,59.99
2019-04-10T11:09:23.954Z,61.17
2019-04-10T11:11:52.002Z,59.85
2019-04-10T11:14:21.360Z,59.13
2019-04-10T11:16:49.586Z,59.28
2019-04-10T11:19:17.643Z,59.24
2019-04-10T11:21:46.991Z,59.33
2019-04-10T11:24:15.191Z,58.45
2019-04-10T11:26:44.049Z,58.91
2019-04-10T11:29:12.111Z,59.93
2019-04-10T11:31:41.479Z,60.01
2019-04-10T11:34:11.177Z,58.37
2019-04-10T11:36:40.104Z,58.80
2019-04-10T11:39:18.624Z,58.87
2019-04-10T11:41:39.402Z,58.48
2019-04-10T11:44:09.466Z,57.08
2019-04-10T11:46:38.747Z,58.28
2019-04-10T11:49:10.248Z,57.71
2019-04-10T11:51:38.882Z,58.00
2019-04-10T11:54:11.014Z,58.56
2019-04-10T11:56:38.366Z,58.77
2019-04-10T11:59:09.196Z,60.29
2019-04-10T12:01:38.629Z,60.78
2019-04-10T12:04:08.671Z,61.22
2019-04-10T12:06:37.736Z,60.33
2019-04-10T12:09:37.588Z,58.40
2019-04-10T12:11:37.531Z,54.32
2019-04-10T12:14:06.089Z,55.33
2019-04-10T12:16:34.102Z,54.28
2019-04-10T12:19:02.743Z,53.80
2019-04-10T12:21:31.622Z,53.31
2019-04-10T12:24:01.232Z,52.95
2019-04-10T12:26:30.312Z,51.77
2019-04-10T12:28:58.595Z,52.61
2019-04-10T12:31:26.774Z,52.97
2019-04-10T12:33:54.901Z,52.71
2019-04-10T12:36:22.991Z,53.85
2019-04-10T12:38:51.925Z,53.73
2019-04-10T12:41:19.967Z,52.99
2019-04-10T12:43:48.044Z,53.76
2019-04-10T12:46:17.650Z,55.42
2019-04-10T12:48:45.734Z,55.23
2019-04-10T12:51:13.873Z,53.95
2019-04-10T12:53:41.883Z,52.77
2019-04-10T12:56:10.262Z,54.48
2019-04-10T12:58:39.236Z,53.35
2019-04-10T13:01:08.693Z,54.87
2019-04-10T13:03:36.840Z,55.08
2019-04-10T13:06:05.342Z,55.57
2019-04-10T13:08:51.542Z,55.16
2019-04-10T13:11:04.435Z,54.13
2019-04-10T13:13:33.748Z,55.93
2019-04-10T13:16:01.917Z,56.97
2019-04-10T13:18:30.179Z,57.23
2019-04-10T13:20:58.570Z,56.82
2019-04-10T13:23:26.721Z,55.99
2019-04-10T13:25:58.226Z,57.01
2019-04-10T13:28:25.540Z,56.58
2019-04-10T13:30:55.273Z,56.40
2019-04-10T13:33:23.329Z,56.49
2019-04-10T13:35:51.483Z,55.95
2019-04-10T13:38:26.611Z,55.25
2019-04-10T13:40:50.161Z,56.22
2019-04-10T13:43:18.280Z,54.80
2019-04-10T13:45:46.393Z,53.58
2019-04-10T13:48:14.582Z,53.96
2019-04-10T13:50:43.200Z,54.79
2019-04-10T13:53:11.295Z,54.76
2019-04-10T13:55:40.094Z,56.05
2019-04-10T13:58:08.811Z,54.75
2019-04-10T14:00:41.440Z,54.58
2019-04-10T14:03:10.106Z,54.89
2019-04-10T14:05:39.080Z,53.69
2019-04-10T14:08:08.385Z,53.57
2019-04-10T14:10:39.426Z,54.20
2019-04-10T14:13:07.441Z,52.99
2019-04-10T14:15:35.872Z,52.12
2019-04-10T14:18:04.415Z,53.14
2019-04-10T14:20:32.458Z,53.49
2019-04-10T14:23:12.586Z,53.96
2019-04-10T14:25:58.304Z,54.87
2019-04-10T14:28:38.364Z,54.22
2019-04-10T14:31:11.951Z,53.80
2019-04-10T14:33:40.019Z,54.51
2019-04-10T14:36:08.080Z,52.43
2019-04-10T14:38:36.116Z,53.71
2019-04-10T14:41:05.228Z,53.70
2019-04-10T14:43:33.363Z,53.37
2019-04-10T14:46:01.398Z,53.84
2019-04-10T14:48:29.931Z,52.93
2019-04-10T14:50:58.027Z,51.90
2019-04-10T14:53:46.921Z,53.24
2019-04-10T14:56:26.075Z,52.35
2019-04-10T14:59:11.483Z,52.29
2019-04-10T15:02:04.563Z,52.64
2019-04-10T15:04:37.279Z,53.09
2019-04-10T15:07:06.106Z,52.89
2019-04-10T15:09:34.703Z,53.68
2019-04-10T15:12:02.970Z,52.77
2019-04-10T15:14:32.880Z,52.90
2019-04-10T15:17:04.399Z,53.44
2019-04-10T15:19:32.207Z,52.51
2019-04-10T15:22:01.185Z,53.71
2019-04-10T15:24:29.408Z,53.19
2019-04-10T15:26:57.527Z,54.04
2019-04-10T15:29:25.680Z,52.70
2019-04-10T15:31:53.718Z,52.90
2019-04-10T15:34:22.556Z,53.64
2019-04-10T15:36:50.852Z,52.13
2019-04-10T15:39:30.155Z,53.09
2019-04-10T15:41:49.712Z,53.67
2019-04-10T15:44:18.289Z,53.26
2019-04-10T15:46:46.403Z,53.72
2019-04-10T15:49:15.277Z,53.61
2019-04-10T15:51:43.439Z,51.99
2019-04-10T15:54:11.746Z,50.64
2019-04-10T15:56:40.186Z,49.97
2019-04-10T15:59:08.266Z,49.19
2019-04-10T16:01:37.242Z,49.84
2019-04-10T16:04:05.314Z,48.47
2019-04-10T16:06:33.475Z,48.43
2019-04-10T16:09:02.920Z,47.71
2019-04-10T16:12:06.090Z,47.79
2019-04-10T16:14:34.202Z,47.56
2019-04-10T16:17:22.230Z,47.70
2019-04-10T16:20:09.186Z,47.27
2019-04-10T16:22:54.610Z,48.13
2019-04-10T16:25:30.141Z,46.88
2019-04-10T16:27:59.933Z,47.41
2019-04-10T16:30:28.396Z,47.55
2019-04-10T16:32:56.573Z,47.83
2019-04-10T16:35:24.638Z,48.44
2019-04-10T16:37:52.668Z,48.78
2019-04-10T16:40:20.802Z,48.65
2019-04-10T16:42:48.912Z,49.45
2019-04-10T16:45:17.634Z,49.20
2019-04-10T16:47:46.239Z,49.31
2019-04-10T16:50:14.459Z,49.61
2019-04-10T16:52:42.861Z,50.84
2019-04-10T16:55:10.972Z,51.67
2019-04-10T16:57:39.206Z,51.40
2019-04-10T17:00:07.331Z,51.12
2019-04-10T17:02:36.033Z,52.25
2019-04-10T17:05:04.333Z,52.09
2019-04-10T17:07:32.793Z,51.92
2019-04-10T17:10:11.756Z,51.28
2019-04-10T17:12:30.778Z,51.42
2019-04-10T17:14:59.601Z,50.13
2019-04-10T17:17:28.417Z,50.00
2019-04-10T17:19:58.091Z,49.13
2019-04-10T17:22:32.413Z,49.31
2019-04-10T17:24:56.072Z,48.65
2019-04-10T17:27:24.189Z,50.45
2019-04-10T17:29:53.502Z,49.94
2019-04-10T17:32:23.368Z,48.18
2019-04-10T17:34:51.509Z,47.57
2019-04-10T17:37:21.275Z,46.82
2019-04-10T17:39:49.557Z,47.43
2019-04-10T17:42:17.805Z,46.30
2019-04-10T17:44:45.847Z,46.63
2019-04-10T17:47:14.490Z,46.75
2019-04-10T17:49:43.497Z,46.91
2019-04-10T17:52:11.558Z,46.87
2019-04-10T17:54:39.719Z,48.66
2019-04-10T17:57:08.655Z,48.74
2019-04-10T17:59:36.839Z,48.79
2019-04-10T18:02:09.523Z,49.37
2019-04-10T18:04:37.959Z,48.87
2019-04-10T18:07:06.127Z,49.01
2019-04-10T18:09:34.725Z,49.82
2019-04-10T18:12:03.953Z,50.42
2019-04-10T18:14:35.152Z,50.87
2019-04-10T18:17:02.565Z,51.22
2019-04-10T18:19:30.868Z,50.90
2019-04-10T18:22:00.377Z,49.82
2019-04-10T18:24:28.621Z,50.54
2019-04-10T18:26:58.075Z,51.38
2019-04-10T18:29:27.407Z,52.25
2019-04-10T18:31:57.848Z,52.64
2019-04-10T18:34:25.414Z,52.96
2019-04-10T18:36:54.534Z,53.06
2019-04-10T18:39:23.984Z,52.77
2019-04-10T18:41:52.177Z,52.31
2019-04-10T18:44:20.600Z,53.25
2019-04-10T18:46:48.919Z,53.05
2019-04-10T18:49:17.057Z,52.62
2019-04-10T18:51:45.915Z,52.50
2019-04-10T18:54:14.399Z,50.84
2019-04-10T18:56:43.110Z,50.96
2019-04-10T18:59:17.148Z,49.87
2019-04-10T19:02:17.977Z,49.45
2019-04-10T19:05:14.131Z,50.02
2019-04-10T19:07:42.817Z,49.81
2019-04-10T19:10:11.466Z,49.69
2019-04-10T19:12:41.163Z,49.19
2019-04-10T19:15:09.365Z,49.36
2019-04-10T19:17:37.444Z,48.62
2019-04-10T19:20:07.089Z,49.08
2019-04-10T19:22:35.354Z,48.56
2019-04-10T19:25:03.401Z,48.78
2019-04-10T19:27:31.874Z,49.00
2019-04-10T19:30:00.126Z,48.92
2019-04-10T19:32:37.651Z,49.03
2019-04-10T19:35:08.189Z,49.79
2019-04-10T19:37:36.748Z,49.78
2019-04-10T19:40:06.996Z,50.10
2019-04-10T19:42:35.655Z,50.64
2019-04-10T19:45:03.848Z,50.51
2019-04-10T19:47:32.557Z,50.84
2019-04-10T19:50:01.446Z,50.42
2019-04-10T19:52:30.676Z,50.80
2019-04-10T19:55:08.212Z,50.62
2019-04-10T19:57:37.430Z,50.61
2019-04-10T20:00:06.405Z,50.79
2019-04-10T20:02:35.180Z,50.86
2019-04-10T20:05:03.542Z,50.93
2019-04-10T20:07:31.621Z,51.22
2019-04-10T20:09:59.718Z,51.41
2019-04-10T20:12:28.706Z,50.76
2019-04-10T20:14:57.369Z,50.91
2019-04-10T20:17:26.067Z,51.20
2019-04-10T20:19:56.737Z,51.45
2019-04-10T20:22:25.068Z,51.24
2019-04-10T20:24:53.549Z,51.23
2019-04-10T20:27:21.639Z,51.28
2019-04-10T20:29:51.032Z,50.91
2019-04-10T20:32:19.641Z,51.38
2019-04-10T20:34:48.042Z,51.09
2019-04-10T20:37:16.139Z,51.14
2019-04-10T20:39:45.340Z,51.09
2019-04-10T20:42:14.037Z,51.17
2019-04-10T20:44:43.057Z,50.70
2019-04-10T20:47:11.581Z,51.14
2019-04-10T20:49:40.561Z,51.35
2019-04-10T20:52:08.791Z,50.84
2019-04-10T20:54:37.175Z,50.72
2019-04-10T20:57:06.466Z,50.84
2019-04-10T20:59:35.152Z,51.13
2019-04-10T21:02:04.179Z,51.46
2019-04-10T21:04:32.467Z,50.89
2019-04-10T21:07:00.757Z,50.88
2019-04-10T21:09:29.844Z,51.09
2019-04-10T21:12:05.326Z,51.21
2019-04-10T21:14:27.742Z,50.55
2019-04-10T21:16:56.161Z,51.00
2019-04-10T21:19:24.879Z,50.96
2019-04-10T21:21:53.320Z,50.56
2019-04-10T21:24:21.382Z,50.83
2019-04-10T21:26:49.562Z,51.15
2019-04-10T21:29:36.455Z,51.51
2019-04-10T21:32:23.937Z,51.51
2019-04-10T21:34:53.436Z,51.03
2019-04-10T21:37:22.219Z,51.07
2019-04-10T21:39:50.396Z,50.53
2019-04-10T21:42:22.709Z,50.73
2019-04-10T21:44:49.224Z,51.07
2019-04-10T21:47:17.366Z,51.26
2019-04-10T21:49:46.401Z,51.19
2019-04-10T21:52:14.615Z,51.34
2019-04-10T21:54:49.627Z,51.51
2019-04-10T21:57:13.743Z,51.83
2019-04-10T21:59:42.878Z,51.48
2019-04-10T22:02:11.460Z,51.70
2019-04-10T22:04:39.608Z,51.45
2019-04-10T22:07:25.773Z,51.67
2019-04-10T22:10:21.775Z,51.67
2019-04-10T22:12:52.203Z,51.18
2019-04-10T22:15:35.175Z,51.22
2019-04-10T22:18:05.138Z,51.04
2019-04-10T22:20:33.860Z,51.06
2019-04-10T22:23:04.059Z,50.87
2019-04-10T22:25:32.309Z,51.22
2019-04-10T22:28:00.614Z,50.96
2019-04-10T22:30:29.515Z,50.79
2019-04-10T22:32:57.741Z,50.45
2019-04-10T22:35:25.890Z,50.41
2019-04-10T22:37:54.493Z,50.42
2019-04-10T22:40:23.622Z,50.84
2019-04-10T22:42:51.916Z,50.35
2019-04-10T22:45:19.994Z,50.70
2019-04-10T22:47:48.080Z,50.42
2019-04-10T22:50:16.129Z,50.38
2019-04-10T22:52:44.320Z,50.21
2019-04-10T22:55:12.342Z,50.52
2019-04-10T22:57:41.582Z,50.63
2019-04-10T23:00:11.587Z,50.42
2019-04-10T23:02:39.801Z,50.21
2019-04-10T23:05:07.836Z,50.39
2019-04-10T23:07:35.906Z,50.19
2019-04-10T23:10:04.504Z,50.26
2019-04-10T23:12:32.600Z,50.19
2019-04-10T23:15:00.885Z,50.22
2019-04-10T23:17:29.008Z,50.29
2019-04-10T23:19:57.077Z,50.08
2019-04-10T23:22:25.313Z,49.95
2019-04-10T23:24:54.085Z,50.27
2019-04-10T23:27:22.181Z,50.43
2019-04-10T23:29:50.659Z,50.10
2019-04-10T23:32:19.430Z,50.13
2019-04-10T23:34:47.485Z,50.02
2019-04-10T23:37:15.648Z,50.32
2019-04-10T23:39:44.123Z,50.17
2019-04-10T23:42:12.812Z,49.97
2019-04-10T23:44:40.891Z,50.00
2019-04-10T23:47:09.623Z,49.93
2019-04-10T23:49:37.809Z,49.41
2019-04-10T23:52:05.848Z,49.56
2019-04-10T23:54:33.869Z,49.95
2019-04-10T23:57:03.049Z,49.81
2019-04-10T23:59:31.182Z,49.60
